A And A — ZGBA7 — position and weather

sailwx.info

Track history (hours):
 
Tides and Currents Weather Stations Pressure Air Temp Water Temp Dewpoint Dewpoint Depression Visibility Wind Speed Wind Dir Waves Ship Positions

A And A

Last reported at 2014-Aug-29 18:34 UTC. Time now 2014-Aug-30 10:32 UTC.
Position N 43°16' E 006°38'.

Type: Pleasure craft. MMSI: 232155000.

Date/timePositionNaut miles runAvg speedWind from/ knotsBaromVisibWave heightAir tempDewpointWater temp
2014-Aug-29 18:34N 43°16' E 006°38'1111.3
2014-Aug-29 17:33N 43°23' E 006°51'10 0.2
2014-Aug-27 23:15N 43°31' E 006°57'  
2014-Aug-24 19:10N 43°31' E 006°57'810.4
2014-Aug-24 18:27N 43°24' E 006°53'1112.5
2014-Aug-24 17:33N 43°16' E 006°44'3 2.7
2014-Aug-24 16:18N 43°13' E 006°40'0 0.0
2014-Aug-24 15:32N 43°13' E 006°40'0 0.0
2014-Aug-24 14:31N 43°13' E 006°40'4 3.7
2014-Aug-24 13:32N 43°17' E 006°39'1 0.0
2014-Aug-22 18:30N 43°16' E 006°38'910.1
2014-Aug-22 17:33N 43°21' E 006°49'1110.8
2014-Aug-22 16:30N 43°31' E 006°57'0 0.1
2014-Aug-22 14:16N 43°31' E 006°57'0 0.0
2014-Aug-22 04:27N 43°31' E 006°57'0 0.0
2014-Aug-22 02:29N 43°31' E 006°57'0 0.0
2014-Aug-21 20:15N 43°31' E 006°57'0 0.0
2014-Aug-21 12:30N 43°31' E 006°57'0 0.0
2014-Aug-21 10:12N 43°31' E 006°57'0 0.0
2014-Aug-21 09:22N 43°31' E 006°57'0 0.0
2014-Aug-21 07:19N 43°31' E 006°57'0 0.0
2014-Aug-21 06:25N 43°31' E 006°57'0 0.0
2014-Aug-21 05:33N 43°31' E 006°57'0 0.0
2014-Aug-21 04:22N 43°31' E 006°57'0 0.0
2014-Aug-20 16:26N 43°31' E 006°57'0 0.0
2014-Aug-20 14:28N 43°31' E 006°57'0 0.0
2014-Aug-20 13:32N 43°31' E 006°57'0 0.0
2014-Aug-20 11:21N 43°31' E 006°57'0 0.0
2014-Aug-20 10:21N 43°31' E 006°57'0 0.0
2014-Aug-20 09:15N 43°31' E 006°57'0 0.0
2014-Aug-20 08:14N 43°31' E 006°57'0 0.0
2014-Aug-19 21:33N 43°31' E 006°57'10 9.6
2014-Aug-19 20:33N 43°23' E 006°52'1211.6
2014-Aug-19 19:33N 43°17' E 006°39'  
Track history (hours):
 
Tides and Currents Weather Stations Pressure Air Temp Water Temp Dewpoint Dewpoint Depression Visibility Wind Speed Wind Dir Waves Ship Positions

A And A

Last reported at 2014-Aug-29 18:34 UTC. Time now 2014-Aug-30 10:32 UTC.
Position N 43°16' E 006°38'.

Type: Pleasure craft. MMSI: 232155000.

Date/timePositionNaut miles runAvg speedWind from/ knotsBaromVisibWave heightAir tempDewpointWater temp
2014-Aug-29 18:34N 43°16' E 006°38'1111.3
2014-Aug-29 17:33N 43°23' E 006°51'10 0.2
2014-Aug-27 23:15N 43°31' E 006°57'  
2014-Aug-24 19:10N 43°31' E 006°57'810.4
2014-Aug-24 18:27N 43°24' E 006°53'1112.5
2014-Aug-24 17:33N 43°16' E 006°44'3 2.7
2014-Aug-24 16:18N 43°13' E 006°40'0 0.0
2014-Aug-24 15:32N 43°13' E 006°40'0 0.0
2014-Aug-24 14:31N 43°13' E 006°40'4 3.7
2014-Aug-24 13:32N 43°17' E 006°39'1 0.0
2014-Aug-22 18:30N 43°16' E 006°38'910.1
2014-Aug-22 17:33N 43°21' E 006°49'1110.8
2014-Aug-22 16:30N 43°31' E 006°57'0 0.1
2014-Aug-22 14:16N 43°31' E 006°57'0 0.0
2014-Aug-22 04:27N 43°31' E 006°57'0 0.0
2014-Aug-22 02:29N 43°31' E 006°57'0 0.0
2014-Aug-21 20:15N 43°31' E 006°57'0 0.0
2014-Aug-21 12:30N 43°31' E 006°57'0 0.0
2014-Aug-21 10:12N 43°31' E 006°57'0 0.0
2014-Aug-21 09:22N 43°31' E 006°57'0 0.0
2014-Aug-21 07:19N 43°31' E 006°57'0 0.0
2014-Aug-21 06:25N 43°31' E 006°57'0 0.0
2014-Aug-21 05:33N 43°31' E 006°57'0 0.0
2014-Aug-21 04:22N 43°31' E 006°57'0 0.0
2014-Aug-20 16:26N 43°31' E 006°57'0 0.0
2014-Aug-20 14:28N 43°31' E 006°57'0 0.0
2014-Aug-20 13:32N 43°31' E 006°57'0 0.0
2014-Aug-20 11:21N 43°31' E 006°57'0 0.0
2014-Aug-20 10:21N 43°31' E 006°57'0 0.0
2014-Aug-20 09:15N 43°31' E 006°57'0 0.0
2014-Aug-20 08:14N 43°31' E 006°57'0 0.0
2014-Aug-19 21:33N 43°31' E 006°57'10 9.6
2014-Aug-19 20:33N 43°23' E 006°52'1211.6
2014-Aug-19 19:33N 43°17' E 006°39'  

Dump ship's entire track history